createdAt,value
2022-08-09T00:00:25.762Z,16.60
2022-08-09T00:02:59.432Z,16.70
2022-08-09T00:06:19.336Z,16.60
2022-08-09T00:08:32.372Z,16.60
2022-08-09T00:11:24.242Z,16.50
2022-08-09T00:13:58.425Z,16.40
2022-08-09T00:16:36.622Z,16.50
2022-08-09T00:19:11.790Z,16.40
2022-08-09T00:21:56.680Z,16.40
2022-08-09T00:24:31.880Z,16.20
2022-08-09T00:27:06.499Z,16.10
2022-08-09T00:30:23.357Z,16.10
2022-08-09T00:32:32.781Z,16.10
2022-08-09T00:35:08.498Z,16.20
2022-08-09T00:37:43.574Z,16.20
2022-08-09T00:40:19.833Z,16.20
2022-08-09T00:44:16.317Z,16.20
2022-08-09T00:45:53.923Z,16.20
2022-08-09T00:48:27.556Z,16.30
2022-08-09T00:51:12.063Z,16.30
2022-08-09T00:53:47.330Z,16.20
2022-08-09T00:56:25.031Z,16.20
2022-08-09T00:58:59.807Z,16.20
2022-08-09T01:01:44.896Z,16.10
2022-08-09T01:04:28.195Z,16.10
2022-08-09T01:07:15.191Z,16.00
2022-08-09T01:09:57.630Z,16.00
2022-08-09T01:12:39.917Z,16.00
2022-08-09T01:15:18.752Z,16.00
2022-08-09T01:17:58.890Z,16.00
2022-08-09T01:20:43.164Z,15.90
2022-08-09T01:24:02.774Z,15.90
2022-08-09T01:26:53.437Z,15.80
2022-08-09T01:29:48.614Z,15.80
2022-08-09T01:32:36.006Z,15.80
2022-08-09T01:35:28.841Z,15.80
2022-08-09T01:38:15.783Z,15.80
2022-08-09T01:41:03.128Z,15.80
2022-08-09T01:43:51.573Z,15.80
2022-08-09T01:46:29.935Z,15.80
2022-08-09T01:49:10.474Z,15.80
2022-08-09T01:51:54.382Z,15.70
2022-08-09T01:54:32.639Z,15.70
2022-08-09T01:57:10.922Z,15.70
2022-08-09T01:59:53.593Z,15.70
2022-08-09T02:02:36.789Z,15.60
2022-08-09T02:05:16.194Z,15.60
2022-08-09T02:08:40.511Z,15.60
2022-08-09T02:10:52.563Z,15.60
2022-08-09T02:13:37.410Z,15.60
2022-08-09T02:16:16.236Z,15.40
2022-08-09T02:18:52.060Z,15.40
2022-08-09T02:21:26.356Z,15.50
2022-08-09T02:24:06.060Z,15.40
2022-08-09T02:26:41.595Z,15.40
2022-08-09T02:29:22.209Z,15.40
2022-08-09T02:32:02.679Z,15.30
2022-08-09T02:34:51.849Z,15.20
2022-08-09T02:37:36.718Z,15.10
2022-08-09T02:40:15.052Z,15.00
2022-08-09T02:43:01.574Z,14.90
2022-08-09T02:45:40.445Z,15.00
2022-08-09T02:48:30.677Z,15.00
2022-08-09T02:51:07.439Z,15.00
2022-08-09T02:53:59.525Z,14.90
2022-08-09T02:56:36.483Z,14.90
2022-08-09T02:59:17.304Z,14.90
2022-08-09T03:02:06.147Z,14.90
2022-08-09T03:04:43.048Z,14.70
2022-08-09T03:07:19.709Z,14.60
2022-08-09T03:09:56.793Z,14.60
2022-08-09T03:12:35.954Z,14.60
2022-08-09T03:15:11.723Z,14.60
2022-08-09T03:17:45.878Z,14.50
2022-08-09T03:20:32.508Z,14.50
2022-08-09T03:23:15.185Z,14.50
2022-08-09T03:26:04.667Z,14.40
2022-08-09T03:28:39.208Z,14.30
2022-08-09T03:31:22.491Z,14.30
2022-08-09T03:33:58.094Z,14.30
2022-08-09T03:36:32.952Z,14.20
2022-08-09T03:39:07.174Z,14.20
2022-08-09T03:41:44.765Z,14.10
2022-08-09T03:44:22.509Z,14.10
2022-08-09T03:47:05.439Z,14.10
2022-08-09T03:49:58.377Z,14.10
2022-08-09T03:52:35.008Z,14.10
2022-08-09T03:55:10.950Z,14.00
2022-08-09T03:57:57.411Z,14.00
2022-08-09T04:00:40.684Z,13.90
2022-08-09T04:03:24.610Z,13.90
2022-08-09T04:06:08.836Z,13.90
2022-08-09T04:08:46.761Z,13.90
2022-08-09T04:11:19.981Z,13.90
2022-08-09T04:14:53.246Z,13.90
2022-08-09T04:16:46.444Z,13.90
2022-08-09T04:19:30.017Z,13.90
2022-08-09T04:22:13.180Z,13.90
2022-08-09T04:24:47.753Z,13.90
2022-08-09T04:27:22.104Z,13.80
2022-08-09T04:29:55.684Z,13.80
2022-08-09T04:32:34.035Z,13.70
2022-08-09T04:35:13.305Z,13.80
2022-08-09T04:37:49.672Z,13.80
2022-08-09T04:40:44.328Z,13.90
2022-08-09T04:43:19.748Z,13.90
2022-08-09T04:45:54.510Z,13.90
2022-08-09T04:48:33.401Z,13.80
2022-08-09T04:51:06.750Z,14.00
2022-08-09T04:53:40.597Z,14.10
2022-08-09T04:56:17.035Z,14.10
2022-08-09T04:58:53.286Z,14.00
2022-08-09T05:01:28.535Z,13.90
2022-08-09T05:04:06.043Z,13.90
2022-08-09T05:06:39.470Z,14.10
2022-08-09T05:09:17.615Z,14.00
2022-08-09T05:11:52.037Z,14.00
2022-08-09T05:14:26.922Z,14.00
2022-08-09T05:17:00.108Z,14.00
2022-08-09T05:19:44.651Z,14.10
2022-08-09T05:22:33.332Z,14.20
2022-08-09T05:25:12.468Z,14.20
2022-08-09T05:27:50.777Z,14.60
2022-08-09T05:30:24.473Z,15.50
2022-08-09T05:33:03.271Z,16.20
2022-08-09T05:35:46.928Z,16.80
2022-08-09T05:38:24.178Z,17.40
2022-08-09T05:41:01.220Z,18.00
2022-08-09T05:43:36.189Z,18.60
2022-08-09T05:46:10.732Z,19.00
2022-08-09T05:48:44.257Z,19.40
2022-08-09T05:51:42.895Z,19.60
2022-08-09T05:54:15.312Z,19.70
2022-08-09T05:56:55.141Z,20.20
2022-08-09T05:59:31.214Z,20.40
2022-08-09T06:02:05.571Z,20.60
2022-08-09T06:04:44.439Z,20.80
2022-08-09T06:07:21.318Z,20.90
2022-08-09T06:10:02.840Z,20.90
2022-08-09T06:12:36.638Z,21.30
2022-08-09T06:15:12.885Z,21.40
2022-08-09T06:17:46.809Z,21.50
2022-08-09T06:20:20.996Z,21.80
2022-08-09T06:22:54.280Z,22.00
2022-08-09T06:25:28.460Z,22.30
2022-08-09T06:28:01.754Z,22.50
2022-08-09T06:30:36.827Z,23.00
2022-08-09T06:33:30.089Z,23.30
2022-08-09T06:36:03.215Z,22.90
2022-08-09T06:38:47.285Z,23.60
2022-08-09T06:41:23.430Z,23.40
2022-08-09T06:44:18.198Z,23.80
2022-08-09T06:46:54.975Z,24.30
2022-08-09T06:49:44.411Z,24.50
2022-08-09T06:52:23.653Z,24.90
2022-08-09T06:54:58.479Z,25.30
2022-08-09T06:58:01.436Z,25.40
2022-08-09T07:00:51.244Z,25.80
2022-08-09T07:03:19.780Z,26.20
2022-08-09T07:06:03.833Z,26.10
2022-08-09T07:08:39.478Z,26.50
2022-08-09T07:11:12.955Z,26.60
2022-08-09T07:14:04.952Z,26.50
2022-08-09T07:16:47.803Z,26.80
2022-08-09T07:19:24.618Z,27.00
2022-08-09T07:21:59.713Z,27.20
2022-08-09T07:24:40.043Z,27.40
2022-08-09T07:27:27.407Z,27.70
2022-08-09T07:30:08.464Z,28.10
2022-08-09T07:32:43.199Z,28.20
2022-08-09T07:35:20.776Z,28.20
2022-08-09T07:37:59.506Z,28.30
2022-08-09T07:40:54.173Z,28.50
2022-08-09T07:43:29.096Z,28.50
2022-08-09T07:46:03.117Z,28.80
2022-08-09T07:48:36.385Z,28.80
2022-08-09T07:52:03.093Z,28.70
2022-08-09T07:54:08.530Z,29.00
2022-08-09T07:56:49.019Z,29.60
2022-08-09T07:59:33.718Z,29.90
2022-08-09T08:02:09.064Z,30.10
2022-08-09T08:04:42.799Z,29.80
2022-08-09T08:08:44.194Z,29.70
2022-08-09T08:10:18.275Z,30.10
2022-08-09T08:12:51.785Z,30.20
2022-08-09T08:15:24.996Z,30.70
2022-08-09T08:17:58.811Z,30.70
2022-08-09T08:20:33.384Z,30.80
2022-08-09T08:23:17.442Z,30.80
2022-08-09T08:26:06.090Z,30.40
2022-08-09T08:28:39.969Z,31.00
2022-08-09T08:31:15.258Z,30.70
2022-08-09T08:33:53.371Z,30.50
2022-08-09T08:36:30.754Z,29.80
2022-08-09T08:39:05.914Z,29.50
2022-08-09T08:41:51.823Z,29.00
2022-08-09T08:44:29.048Z,29.70
2022-08-09T08:47:12.149Z,30.10
2022-08-09T08:49:49.351Z,29.60
2022-08-09T08:55:23.352Z,29.40
2022-08-09T08:57:58.169Z,29.30
2022-08-09T09:00:34.216Z,30.00
2022-08-09T09:03:11.727Z,29.80
2022-08-09T09:06:03.326Z,29.50
2022-08-09T09:08:42.523Z,29.40
2022-08-09T09:11:19.850Z,29.90
2022-08-09T09:13:58.574Z,29.90
2022-08-09T09:16:35.103Z,29.10
2022-08-09T09:22:11.699Z,28.50
2022-08-09T09:24:49.144Z,29.10
2022-08-09T09:28:04.248Z,29.40
2022-08-09T09:30:39.776Z,29.40
2022-08-09T09:33:16.269Z,29.80
2022-08-09T09:36:02.321Z,29.90
2022-08-09T09:38:48.653Z,30.10
2022-08-09T09:41:33.340Z,29.80
2022-08-09T09:44:31.817Z,30.20
2022-08-09T09:47:09.763Z,30.60
2022-08-09T09:50:06.967Z,30.90
2022-08-09T09:52:53.921Z,30.70
2022-08-09T09:55:32.835Z,29.80
2022-08-09T09:58:16.530Z,29.80
2022-08-09T10:00:59.210Z,29.80
2022-08-09T10:03:42.682Z,29.80
2022-08-09T10:06:16.962Z,29.70
2022-08-09T10:08:57.311Z,29.40
2022-08-09T10:12:00.875Z,29.30
2022-08-09T10:14:33.137Z,29.30
2022-08-09T10:17:51.308Z,29.40
2022-08-09T10:20:27.007Z,29.20
2022-08-09T10:23:20.331Z,29.10
2022-08-09T10:26:07.217Z,28.90
2022-08-09T10:28:48.961Z,29.20
2022-08-09T10:32:35.762Z,29.30
2022-08-09T10:34:37.328Z,29.50
2022-08-09T10:37:13.898Z,29.30
2022-08-09T10:39:49.901Z,29.10
2022-08-09T10:42:27.050Z,29.30
2022-08-09T10:45:04.591Z,29.00
2022-08-09T10:48:17.275Z,29.10
2022-08-09T10:51:12.254Z,29.20
2022-08-09T10:54:04.673Z,29.30
2022-08-09T10:56:39.854Z,28.80
2022-08-09T10:59:31.911Z,29.20
2022-08-09T11:03:16.002Z,29.00
2022-08-09T11:05:33.599Z,28.40
2022-08-09T11:08:47.105Z,28.50
2022-08-09T11:11:21.556Z,28.70
2022-08-09T11:14:34.000Z,29.00
2022-08-09T11:18:03.782Z,28.90
2022-08-09T11:20:49.701Z,29.10
2022-08-09T11:23:30.197Z,28.70
2022-08-09T11:26:04.926Z,28.50
2022-08-09T11:28:56.196Z,28.30
2022-08-09T11:31:53.014Z,28.30
2022-08-09T11:34:44.757Z,28.50
2022-08-09T11:37:31.339Z,28.60
2022-08-09T11:40:17.804Z,28.80
2022-08-09T11:42:56.495Z,28.90
2022-08-09T11:45:42.352Z,29.00
2022-08-09T11:48:26.143Z,29.00
2022-08-09T11:52:56.850Z,29.00
2022-08-09T11:54:28.596Z,29.10
2022-08-09T11:58:00.354Z,28.70
2022-08-09T12:00:35.807Z,28.80
2022-08-09T12:03:54.977Z,28.50
2022-08-09T12:06:17.955Z,28.40
2022-08-09T12:09:01.472Z,28.60
2022-08-09T12:11:37.949Z,29.00
2022-08-09T12:14:36.770Z,29.00
2022-08-09T12:17:27.864Z,28.80
2022-08-09T12:20:16.335Z,28.70
2022-08-09T12:22:56.408Z,28.40
2022-08-09T12:25:37.563Z,28.50
2022-08-09T12:29:10.125Z,28.70
2022-08-09T12:31:58.154Z,28.60
2022-08-09T12:34:15.564Z,28.80
2022-08-09T12:36:58.725Z,28.90
2022-08-09T12:39:42.861Z,28.70
2022-08-09T12:42:16.756Z,28.60
2022-08-09T12:44:52.269Z,28.60
2022-08-09T12:47:28.501Z,28.60
2022-08-09T12:50:19.677Z,28.60
2022-08-09T12:53:08.935Z,28.50
2022-08-09T12:56:15.617Z,28.50
2022-08-09T12:59:05.094Z,28.50
2022-08-09T13:01:47.011Z,28.70
2022-08-09T13:04:37.523Z,28.80
2022-08-09T13:07:16.315Z,28.70
2022-08-09T13:10:02.827Z,28.60
2022-08-09T13:13:09.454Z,28.60
2022-08-09T13:15:55.908Z,28.60
2022-08-09T13:18:31.294Z,28.80
2022-08-09T13:22:36.146Z,28.60
2022-08-09T13:24:53.728Z,28.70
2022-08-09T13:27:29.094Z,28.60
2022-08-09T13:30:50.438Z,28.90
2022-08-09T13:32:59.459Z,28.60
2022-08-09T13:35:34.212Z,28.50
2022-08-09T13:38:32.993Z,28.50
2022-08-09T13:41:56.536Z,28.60
2022-08-09T13:43:57.394Z,28.50
2022-08-09T13:47:17.794Z,28.50
2022-08-09T13:49:25.424Z,28.50
2022-08-09T13:52:11.526Z,28.60
2022-08-09T13:55:00.553Z,28.70
2022-08-09T13:57:42.863Z,28.60
2022-08-09T14:00:18.588Z,28.70
2022-08-09T14:03:03.221Z,28.90
2022-08-09T14:05:57.137Z,28.80
2022-08-09T14:08:34.970Z,29.10
2022-08-09T14:11:15.851Z,28.80
2022-08-09T14:14:23.786Z,28.70
2022-08-09T14:16:44.466Z,28.70
2022-08-09T14:19:17.948Z,28.80
2022-08-09T14:21:54.201Z,28.80
2022-08-09T14:24:32.178Z,28.60
2022-08-09T14:27:19.869Z,28.90
2022-08-09T14:30:35.091Z,28.90
2022-08-09T14:32:48.828Z,28.70
2022-08-09T14:35:22.902Z,28.50
2022-08-09T14:38:04.292Z,28.60
2022-08-09T14:41:01.585Z,28.90
2022-08-09T14:43:47.565Z,28.70
2022-08-09T14:46:58.975Z,28.80
2022-08-09T14:49:19.227Z,28.90
2022-08-09T14:51:58.335Z,28.90
2022-08-09T14:54:32.297Z,28.90
2022-08-09T14:57:08.072Z,29.00
2022-08-09T14:59:45.496Z,28.90
2022-08-09T15:02:23.098Z,28.80
2022-08-09T15:04:56.174Z,28.90
2022-08-09T15:07:29.367Z,28.80
2022-08-09T15:10:14.207Z,28.80
2022-08-09T15:12:48.982Z,28.80
2022-08-09T15:15:23.879Z,28.70
2022-08-09T15:17:58.701Z,28.70
2022-08-09T15:21:57.311Z,28.70
2022-08-09T15:24:01.528Z,28.70
2022-08-09T15:26:30.948Z,28.80
2022-08-09T15:29:05.807Z,28.60
2022-08-09T15:31:41.257Z,28.60
2022-08-09T15:34:31.932Z,28.50
2022-08-09T15:37:37.715Z,28.60
2022-08-09T15:40:25.262Z,28.70
2022-08-09T15:43:05.718Z,28.80
2022-08-09T15:46:02.843Z,28.70
2022-08-09T15:48:32.500Z,28.80
2022-08-09T15:51:30.085Z,28.70
2022-08-09T15:54:03.155Z,28.60
2022-08-09T15:56:41.255Z,28.60
2022-08-09T15:59:17.826Z,28.60
2022-08-09T16:01:51.480Z,28.50
2022-08-09T16:04:24.591Z,28.50
2022-08-09T16:07:03.586Z,28.50
2022-08-09T16:09:57.745Z,28.40
2022-08-09T16:12:31.066Z,28.40
2022-08-09T16:16:11.731Z,28.40
2022-08-09T16:17:59.228Z,28.40
2022-08-09T16:20:33.046Z,28.20
2022-08-09T16:23:07.890Z,28.30
2022-08-09T16:25:44.313Z,28.30
2022-08-09T16:28:25.741Z,28.20
2022-08-09T16:30:59.608Z,28.20
2022-08-09T16:33:34.882Z,28.20
2022-08-09T16:36:14.402Z,28.20
2022-08-09T16:38:53.527Z,28.20
2022-08-09T16:42:02.093Z,28.20
2022-08-09T16:44:19.975Z,28.10
2022-08-09T16:47:01.908Z,28.10
2022-08-09T16:50:31.208Z,28.00
2022-08-09T16:52:41.231Z,28.10
2022-08-09T16:55:18.170Z,28.10
2022-08-09T16:58:09.093Z,28.20
2022-08-09T17:00:46.519Z,28.10
2022-08-09T17:03:21.482Z,28.10
2022-08-09T17:06:08.775Z,28.00
2022-08-09T17:09:01.446Z,28.00
2022-08-09T17:11:41.480Z,27.80
2022-08-09T17:14:16.252Z,28.00
2022-08-09T17:17:03.665Z,28.10
2022-08-09T17:20:32.891Z,27.90
2022-08-09T17:22:50.616Z,27.80
2022-08-09T17:25:25.752Z,27.90
2022-08-09T17:28:08.062Z,27.80
2022-08-09T17:30:47.859Z,27.70
2022-08-09T17:33:22.611Z,27.60
2022-08-09T17:35:56.411Z,27.60
2022-08-09T17:38:37.202Z,27.50
2022-08-09T17:41:12.440Z,27.40
2022-08-09T17:44:36.416Z,27.40
2022-08-09T17:46:41.563Z,27.40
2022-08-09T17:49:30.420Z,27.40
2022-08-09T17:52:04.477Z,27.30
2022-08-09T17:54:38.756Z,27.20
2022-08-09T17:57:24.385Z,27.10
2022-08-09T18:00:12.365Z,27.00
2022-08-09T18:02:57.924Z,26.90
2022-08-09T18:05:43.448Z,26.90
2022-08-09T18:08:17.111Z,26.90
2022-08-09T18:11:01.512Z,26.80
2022-08-09T18:13:38.728Z,26.70
2022-08-09T18:16:30.367Z,26.60
2022-08-09T18:20:53.815Z,26.50
2022-08-09T18:21:57.700Z,26.50
2022-08-09T18:24:34.213Z,26.40
2022-08-09T18:27:08.783Z,26.30
2022-08-09T18:30:40.267Z,26.20
2022-08-09T18:32:37.172Z,26.10
2022-08-09T18:35:11.225Z,26.00
2022-08-09T18:37:48.928Z,25.90
2022-08-09T18:40:28.008Z,25.80
2022-08-09T18:43:03.059Z,25.70
2022-08-09T18:46:49.929Z,25.70
2022-08-09T18:48:32.785Z,25.60
2022-08-09T18:51:06.644Z,25.60
2022-08-09T18:54:00.842Z,25.50
2022-08-09T18:56:33.677Z,25.40
2022-08-09T18:59:06.807Z,25.20
2022-08-09T19:01:45.972Z,25.10
2022-08-09T19:04:34.691Z,25.10
2022-08-09T19:07:08.504Z,25.00
2022-08-09T19:10:17.154Z,24.80
2022-08-09T19:12:37.167Z,24.70
2022-08-09T19:15:12.672Z,24.60
2022-08-09T19:17:56.399Z,24.40
2022-08-09T19:20:38.931Z,24.30
2022-08-09T19:23:16.683Z,24.10
2022-08-09T19:26:02.114Z,23.90
2022-08-09T19:28:40.026Z,23.80
2022-08-09T19:31:16.785Z,23.60
2022-08-09T19:33:50.247Z,23.50
2022-08-09T19:36:30.889Z,23.40
2022-08-09T19:39:08.261Z,23.30
2022-08-09T19:41:42.397Z,23.20
2022-08-09T19:44:17.748Z,23.10
2022-08-09T19:46:53.879Z,23.00
2022-08-09T19:50:10.378Z,22.80
2022-08-09T19:52:22.196Z,22.70
2022-08-09T19:54:57.407Z,22.60
2022-08-09T19:57:32.232Z,22.50
2022-08-09T20:00:10.269Z,22.40
2022-08-09T20:04:06.975Z,22.30
2022-08-09T20:05:46.002Z,22.20
2022-08-09T20:08:33.567Z,22.20
2022-08-09T20:11:08.761Z,22.00
2022-08-09T20:13:41.966Z,21.90
2022-08-09T20:16:37.289Z,21.90
2022-08-09T20:19:48.868Z,21.80
2022-08-09T20:22:14.434Z,21.70
2022-08-09T20:24:54.233Z,21.60
2022-08-09T20:27:29.312Z,21.40
2022-08-09T20:30:02.956Z,21.40
2022-08-09T20:32:38.136Z,21.30
2022-08-09T20:35:11.595Z,21.30
2022-08-09T20:38:24.026Z,21.20
2022-08-09T20:40:41.158Z,21.10
2022-08-09T20:43:18.766Z,21.00
2022-08-09T20:46:01.453Z,21.00
2022-08-09T20:48:49.553Z,20.90
2022-08-09T20:51:24.248Z,20.80
2022-08-09T20:53:57.444Z,20.80
2022-08-09T20:56:32.030Z,20.60
2022-08-09T20:59:05.401Z,20.50
2022-08-09T21:01:50.303Z,20.50
2022-08-09T21:05:51.830Z,20.40
2022-08-09T21:07:17.669Z,20.40
2022-08-09T21:09:56.951Z,20.20
2022-08-09T21:12:33.353Z,20.10
2022-08-09T21:15:12.346Z,20.20
2022-08-09T21:18:23.587Z,20.10
2022-08-09T21:20:40.191Z,20.10
2022-08-09T21:23:15.499Z,20.00
2022-08-09T21:25:59.958Z,19.90
2022-08-09T21:28:36.439Z,19.90
2022-08-09T21:31:13.520Z,19.90
2022-08-09T21:33:56.682Z,19.80
2022-08-09T21:36:30.591Z,19.80
2022-08-09T21:39:05.889Z,19.70
2022-08-09T21:42:05.974Z,19.60
2022-08-09T21:44:35.410Z,19.60
2022-08-09T21:47:14.137Z,19.50
2022-08-09T21:49:51.593Z,19.40
2022-08-09T21:52:25.083Z,19.40
2022-08-09T21:55:04.206Z,19.30
2022-08-09T21:57:59.706Z,19.30
2022-08-09T22:00:36.527Z,19.20
2022-08-09T22:03:19.268Z,19.20
2022-08-09T22:05:53.163Z,19.20
2022-08-09T22:08:27.417Z,19.20
2022-08-09T22:12:04.346Z,19.20
2022-08-09T22:13:53.657Z,19.10
2022-08-09T22:16:28.309Z,19.10
2022-08-09T22:19:02.049Z,19.10
2022-08-09T22:21:55.223Z,19.10
2022-08-09T22:24:28.632Z,19.10
2022-08-09T22:27:01.830Z,19.00
2022-08-09T22:29:47.669Z,18.80
2022-08-09T22:32:29.993Z,18.70
2022-08-09T22:35:06.669Z,18.60
2022-08-09T22:38:06.499Z,18.60
2022-08-09T22:40:49.304Z,18.60
2022-08-09T22:44:01.221Z,18.60
2022-08-09T22:48:16.513Z,18.50
2022-08-09T22:49:19.250Z,18.50
2022-08-09T22:51:57.118Z,18.40
2022-08-09T22:54:30.862Z,18.30
2022-08-09T22:57:04.671Z,18.20
2022-08-09T22:59:55.954Z,18.20
2022-08-09T23:02:31.047Z,18.20
2022-08-09T23:05:06.458Z,18.10
2022-08-09T23:08:27.382Z,18.00
2022-08-09T23:10:50.470Z,18.00
2022-08-09T23:13:23.594Z,18.10
2022-08-09T23:16:02.680Z,18.00
2022-08-09T23:18:36.943Z,17.90
2022-08-09T23:21:13.826Z,17.90
2022-08-09T23:24:05.317Z,17.90
2022-08-09T23:26:40.855Z,17.90
2022-08-09T23:29:14.598Z,18.00
2022-08-09T23:31:51.325Z,18.10
2022-08-09T23:34:27.525Z,18.10
2022-08-09T23:37:02.071Z,18.20
2022-08-09T23:39:35.432Z,18.10
2022-08-09T23:42:08.820Z,18.20
2022-08-09T23:44:42.071Z,18.20
2022-08-09T23:47:15.254Z,18.20
2022-08-09T23:49:48.429Z,18.20
2022-08-09T23:52:24.366Z,18.20
2022-08-09T23:54:57.686Z,18.10
2022-08-09T23:57:30.932Z,18.10
